sensor_id;sensor_type;location;lat;lon;timestamp;pressure;altitude;pressure_sealevel;temperature;humidity
6134;BME280;3098;42.678;23.364;2022-09-04T00:01:01;95289.06;;;15.58;100.00
6134;BME280;3098;42.678;23.364;2022-09-04T00:03:37;95319.72;;;15.60;100.00
6134;BME280;3098;42.678;23.364;2022-09-04T00:06:12;95315.66;;;15.75;100.00
6134;BME280;3098;42.678;23.364;2022-09-04T00:08:58;95323.34;;;15.56;100.00
6134;BME280;3098;42.678;23.364;2022-09-04T00:11:36;95315.53;;;15.50;100.00
6134;BME280;3098;42.678;23.364;2022-09-04T00:14:13;95316.56;;;15.58;100.00
6134;BME280;3098;42.678;23.364;2022-09-04T00:16:46;95318.56;;;15.49;100.00
6134;BME280;3098;42.678;23.364;2022-09-04T00:19:24;95319.38;;;15.41;100.00
6134;BME280;3098;42.678;23.364;2022-09-04T00:21:56;95328.72;;;15.35;100.00
6134;BME280;3098;42.678;23.364;2022-09-04T00:24:29;95294.94;;;15.30;100.00
6134;BME280;3098;42.678;23.364;2022-09-04T00:27:03;95283.78;;;15.28;100.00
6134;BME280;3098;42.678;23.364;2022-09-04T00:29:38;95310.66;;;15.32;100.00
6134;BME280;3098;42.678;23.364;2022-09-04T00:32:14;95313.47;;;15.15;100.00
6134;BME280;3098;42.678;23.364;2022-09-04T00:34:57;95323.88;;;15.08;100.00
6134;BME280;3098;42.678;23.364;2022-09-04T00:37:32;95318.72;;;15.03;100.00
6134;BME280;3098;42.678;23.364;2022-09-04T00:40:05;95302.31;;;14.92;100.00
6134;BME280;3098;42.678;23.364;2022-09-04T00:42:57;95327.19;;;15.05;100.00
6134;BME280;3098;42.678;23.364;2022-09-04T00:45:43;95331.50;;;14.97;100.00
6134;BME280;3098;42.678;23.364;2022-09-04T00:48:26;95310.00;;;14.93;100.00
6134;BME280;3098;42.678;23.364;2022-09-04T00:51:08;95332.16;;;15.15;100.00
6134;BME280;3098;42.678;23.364;2022-09-04T00:54:09;95324.81;;;15.12;100.00
6134;BME280;3098;42.678;23.364;2022-09-04T01:00:08;95323.72;;;14.83;100.00
6134;BME280;3098;42.678;23.364;2022-09-04T01:03:02;95301.19;;;14.72;100.00
6134;BME280;3098;42.678;23.364;2022-09-04T01:05:42;95243.19;;;14.52;100.00
6134;BME280;3098;42.678;23.364;2022-09-04T01:08:24;95300.03;;;15.03;100.00
6134;BME280;3098;42.678;23.364;2022-09-04T01:11:04;95323.56;;;15.09;100.00
6134;BME280;3098;42.678;23.364;2022-09-04T01:13:38;95326.94;;;14.98;100.00
6134;BME280;3098;42.678;23.364;2022-09-04T01:16:11;95319.41;;;14.70;100.00
6134;BME280;3098;42.678;23.364;2022-09-04T01:18:46;95315.31;;;14.44;100.00
6134;BME280;3098;42.678;23.364;2022-09-04T01:21:41;95338.56;;;14.34;100.00
6134;BME280;3098;42.678;23.364;2022-09-04T01:24:34;95335.72;;;14.39;100.00
6134;BME280;3098;42.678;23.364;2022-09-04T01:27:07;95328.31;;;14.45;100.00
6134;BME280;3098;42.678;23.364;2022-09-04T01:29:42;95333.06;;;14.39;100.00
6134;BME280;3098;42.678;23.364;2022-09-04T01:32:21;95309.59;;;14.54;100.00
6134;BME280;3098;42.678;23.364;2022-09-04T01:34:56;95313.28;;;14.70;100.00
6134;BME280;3098;42.678;23.364;2022-09-04T01:37:40;95311.88;;;14.72;100.00
6134;BME280;3098;42.678;23.364;2022-09-04T01:40:22;95306.97;;;14.74;100.00
6134;BME280;3098;42.678;23.364;2022-09-04T01:42:55;95316.41;;;14.72;100.00
6134;BME280;3098;42.678;23.364;2022-09-04T01:45:31;95306.53;;;14.72;100.00
6134;BME280;3098;42.678;23.364;2022-09-04T01:48:03;95305.81;;;14.84;100.00
6134;BME280;3098;42.678;23.364;2022-09-04T01:50:35;95305.94;;;14.87;100.00
6134;BME280;3098;42.678;23.364;2022-09-04T01:53:10;95296.63;;;14.73;100.00
6134;BME280;3098;42.678;23.364;2022-09-04T01:55:43;95296.69;;;14.64;100.00
6134;BME280;3098;42.678;23.364;2022-09-04T01:58:25;95313.41;;;14.73;100.00
6134;BME280;3098;42.678;23.364;2022-09-04T02:01:04;95262.13;;;14.38;100.00
6134;BME280;3098;42.678;23.364;2022-09-04T02:03:39;95312.59;;;14.52;100.00
6134;BME280;3098;42.678;23.364;2022-09-04T02:06:19;95310.56;;;14.49;100.00
6134;BME280;3098;42.678;23.364;2022-09-04T02:09:05;95298.31;;;14.48;100.00
6134;BME280;3098;42.678;23.364;2022-09-04T02:11:38;95292.75;;;14.32;100.00
6134;BME280;3098;42.678;23.364;2022-09-04T02:14:19;95283.13;;;14.40;100.00
6134;BME280;3098;42.678;23.364;2022-09-04T02:17:02;95277.22;;;14.26;100.00
6134;BME280;3098;42.678;23.364;2022-09-04T02:19:38;95220.31;;;13.84;100.00
6134;BME280;3098;42.678;23.364;2022-09-04T02:22:15;95277.00;;;14.10;100.00
6134;BME280;3098;42.678;23.364;2022-09-04T02:24:50;95304.88;;;14.21;100.00
6134;BME280;3098;42.678;23.364;2022-09-04T02:27:23;95299.88;;;14.11;100.00
6134;BME280;3098;42.678;23.364;2022-09-04T02:29:57;95292.06;;;14.06;100.00
6134;BME280;3098;42.678;23.364;2022-09-04T02:32:33;95267.47;;;13.92;100.00
6134;BME280;3098;42.678;23.364;2022-09-04T02:35:07;95283.91;;;14.03;100.00
6134;BME280;3098;42.678;23.364;2022-09-04T02:37:40;95285.06;;;13.93;100.00
6134;BME280;3098;42.678;23.364;2022-09-04T02:40:16;95280.38;;;13.81;100.00
6134;BME280;3098;42.678;23.364;2022-09-04T02:42:54;95274.72;;;13.83;100.00
6134;BME280;3098;42.678;23.364;2022-09-04T02:45:33;95294.50;;;13.82;100.00
6134;BME280;3098;42.678;23.364;2022-09-04T02:48:09;95294.78;;;13.80;100.00
6134;BME280;3098;42.678;23.364;2022-09-04T02:50:55;95289.00;;;13.78;100.00
6134;BME280;3098;42.678;23.364;2022-09-04T02:53:29;95292.72;;;13.95;100.00
6134;BME280;3098;42.678;23.364;2022-09-04T02:56:09;95301.03;;;13.93;100.00
6134;BME280;3098;42.678;23.364;2022-09-04T02:58:48;95250.81;;;13.49;100.00
6134;BME280;3098;42.678;23.364;2022-09-04T03:01:23;95282.09;;;13.77;100.00
6134;BME280;3098;42.678;23.364;2022-09-04T03:04:01;95159.53;;;13.05;100.00
6134;BME280;3098;42.678;23.364;2022-09-04T03:06:41;95308.13;;;13.80;100.00
6134;BME280;3098;42.678;23.364;2022-09-04T03:09:17;95320.53;;;13.68;100.00
6134;BME280;3098;42.678;23.364;2022-09-04T03:11:49;95312.69;;;13.63;100.00
6134;BME280;3098;42.678;23.364;2022-09-04T03:14:23;95321.34;;;13.60;100.00
6134;BME280;3098;42.678;23.364;2022-09-04T03:17:05;95308.81;;;13.43;100.00
6134;BME280;3098;42.678;23.364;2022-09-04T03:19:41;95321.84;;;13.53;100.00
6134;BME280;3098;42.678;23.364;2022-09-04T03:22:15;95321.06;;;13.36;100.00
6134;BME280;3098;42.678;23.364;2022-09-04T03:25:04;95314.94;;;13.09;100.00
6134;BME280;3098;42.678;23.364;2022-09-04T03:27:33;95310.81;;;13.03;100.00
6134;BME280;3098;42.678;23.364;2022-09-04T03:30:04;95292.97;;;12.87;100.00
6134;BME280;3098;42.678;23.364;2022-09-04T03:32:41;95310.50;;;12.88;100.00
6134;BME280;3098;42.678;23.364;2022-09-04T03:35:17;95314.59;;;12.85;100.00
6134;BME280;3098;42.678;23.364;2022-09-04T03:37:57;95238.88;;;12.35;100.00
6134;BME280;3098;42.678;23.364;2022-09-04T03:40:35;95313.94;;;12.71;100.00
6134;BME280;3098;42.678;23.364;2022-09-04T03:43:15;95327.38;;;12.75;100.00
6134;BME280;3098;42.678;23.364;2022-09-04T03:45:54;95328.81;;;12.81;100.00
6134;BME280;3098;42.678;23.364;2022-09-04T03:48:37;95308.66;;;12.88;100.00
6134;BME280;3098;42.678;23.364;2022-09-04T03:51:15;95308.63;;;12.80;100.00
6134;BME280;3098;42.678;23.364;2022-09-04T03:53:53;95319.75;;;12.90;100.00
6134;BME280;3098;42.678;23.364;2022-09-04T03:56:42;95346.56;;;13.02;100.00
6134;BME280;3098;42.678;23.364;2022-09-04T03:59:24;95342.47;;;13.05;100.00
6134;BME280;3098;42.678;23.364;2022-09-04T04:02:02;95354.41;;;13.07;100.00
6134;BME280;3098;42.678;23.364;2022-09-04T04:04:58;95360.22;;;13.35;100.00
6134;BME280;3098;42.678;23.364;2022-09-04T04:07:35;95239.56;;;12.83;100.00
6134;BME280;3098;42.678;23.364;2022-09-04T04:10:23;95359.44;;;13.60;100.00
6134;BME280;3098;42.678;23.364;2022-09-04T04:13:19;95287.69;;;13.21;100.00
6134;BME280;3098;42.678;23.364;2022-09-04T04:16:01;95388.28;;;13.84;100.00
6134;BME280;3098;42.678;23.364;2022-09-04T04:18:46;95394.41;;;13.85;100.00
6134;BME280;3098;42.678;23.364;2022-09-04T04:21:28;95383.41;;;13.86;100.00
6134;BME280;3098;42.678;23.364;2022-09-04T04:24:11;95385.44;;;13.89;100.00
6134;BME280;3098;42.678;23.364;2022-09-04T04:26:54;95379.66;;;13.61;100.00
6134;BME280;3098;42.678;23.364;2022-09-04T04:29:36;95348.16;;;13.46;100.00
6134;BME280;3098;42.678;23.364;2022-09-04T04:32:22;95383.41;;;13.77;100.00
6134;BME280;3098;42.678;23.364;2022-09-04T04:35:10;95402.41;;;13.76;100.00
6134;BME280;3098;42.678;23.364;2022-09-04T04:37:52;95413.69;;;13.81;100.00
6134;BME280;3098;42.678;23.364;2022-09-04T04:40:33;95420.91;;;13.81;100.00
6134;BME280;3098;42.678;23.364;2022-09-04T04:43:09;95398.16;;;13.83;100.00
6134;BME280;3098;42.678;23.364;2022-09-04T04:45:43;95391.06;;;14.05;100.00
6134;BME280;3098;42.678;23.364;2022-09-04T04:51:27;95378.38;;;14.02;100.00
6134;BME280;3098;42.678;23.364;2022-09-04T04:54:16;95415.66;;;14.27;100.00
6134;BME280;3098;42.678;23.364;2022-09-04T04:56:52;95396.22;;;14.18;100.00
6134;BME280;3098;42.678;23.364;2022-09-04T04:59:22;95422.69;;;14.41;100.00
6134;BME280;3098;42.678;23.364;2022-09-04T05:02:00;95405.28;;;14.34;100.00
6134;BME280;3098;42.678;23.364;2022-09-04T05:04:39;95428.84;;;14.32;100.00
6134;BME280;3098;42.678;23.364;2022-09-04T05:07:13;95427.25;;;14.31;100.00
6134;BME280;3098;42.678;23.364;2022-09-04T05:09:51;95405.78;;;14.11;100.00
6134;BME280;3098;42.678;23.364;2022-09-04T05:12:30;95401.84;;;14.17;100.00
6134;BME280;3098;42.678;23.364;2022-09-04T05:15:08;95386.03;;;14.03;100.00
6134;BME280;3098;42.678;23.364;2022-09-04T05:17:45;95404.97;;;14.36;100.00
6134;BME280;3098;42.678;23.364;2022-09-04T05:20:28;95395.03;;;14.45;100.00
6134;BME280;3098;42.678;23.364;2022-09-04T05:23:11;95404.38;;;14.68;100.00
6134;BME280;3098;42.678;23.364;2022-09-04T05:25:48;95366.44;;;14.54;100.00
6134;BME280;3098;42.678;23.364;2022-09-04T05:28:24;95424.75;;;15.11;100.00
6134;BME280;3098;42.678;23.364;2022-09-04T05:31:01;95436.19;;;15.49;100.00
6134;BME280;3098;42.678;23.364;2022-09-04T05:33:37;95435.38;;;15.90;100.00
6134;BME280;3098;42.678;23.364;2022-09-04T05:36:11;95417.16;;;16.04;100.00
6134;BME280;3098;42.678;23.364;2022-09-04T05:38:49;95419.97;;;16.07;100.00
6134;BME280;3098;42.678;23.364;2022-09-04T05:41:35;95428.91;;;16.12;100.00
6134;BME280;3098;42.678;23.364;2022-09-04T05:44:15;95432.66;;;16.31;100.00
6134;BME280;3098;42.678;23.364;2022-09-04T05:46:56;95432.78;;;16.80;100.00
6134;BME280;3098;42.678;23.364;2022-09-04T05:49:40;95424.06;;;16.83;100.00
6134;BME280;3098;42.678;23.364;2022-09-04T05:52:21;95428.84;;;17.38;100.00
6134;BME280;3098;42.678;23.364;2022-09-04T05:55:23;95437.31;;;17.52;100.00
6134;BME280;3098;42.678;23.364;2022-09-04T05:58:08;95391.16;;;17.70;100.00
6134;BME280;3098;42.678;23.364;2022-09-04T06:00:46;95434.88;;;18.42;100.00
6134;BME280;3098;42.678;23.364;2022-09-04T06:06:13;95409.81;;;17.95;100.00
6134;BME280;3098;42.678;23.364;2022-09-04T06:11:50;95404.84;;;18.09;100.00
6134;BME280;3098;42.678;23.364;2022-09-04T06:14:41;95404.03;;;17.93;100.00
6134;BME280;3098;42.678;23.364;2022-09-04T06:17:20;95394.97;;;18.41;100.00
6134;BME280;3098;42.678;23.364;2022-09-04T06:20:23;95416.44;;;18.41;100.00
6134;BME280;3098;42.678;23.364;2022-09-04T06:23:14;95359.84;;;20.23;100.00
6134;BME280;3098;42.678;23.364;2022-09-04T06:26:09;95408.31;;;22.56;88.32
6134;BME280;3098;42.678;23.364;2022-09-04T06:29:04;95409.31;;;22.77;84.27
6134;BME280;3098;42.678;23.364;2022-09-04T06:35:07;95399.03;;;24.20;74.50
6134;BME280;3098;42.678;23.364;2022-09-04T06:37:44;95415.34;;;21.41;85.22
6134;BME280;3098;42.678;23.364;2022-09-04T06:40:33;95371.13;;;19.52;95.53
6134;BME280;3098;42.678;23.364;2022-09-04T06:43:14;95408.72;;;21.91;87.82
6134;BME280;3098;42.678;23.364;2022-09-04T06:45:50;95417.59;;;24.18;75.62
6134;BME280;3098;42.678;23.364;2022-09-04T06:48:31;95404.97;;;23.71;77.28
6134;BME280;3098;42.678;23.364;2022-09-04T06:51:11;95405.81;;;25.11;71.20
6134;BME280;3098;42.678;23.364;2022-09-04T06:53:51;95416.09;;;26.11;66.07
6134;BME280;3098;42.678;23.364;2022-09-04T06:56:40;95417.44;;;26.62;63.52
6134;BME280;3098;42.678;23.364;2022-09-04T06:59:26;95417.66;;;26.09;63.02
6134;BME280;3098;42.678;23.364;2022-09-04T07:02:04;95403.75;;;25.93;66.37
6134;BME280;3098;42.678;23.364;2022-09-04T07:04:44;95369.75;;;26.43;62.89
6134;BME280;3098;42.678;23.364;2022-09-04T07:07:20;95397.34;;;26.38;62.00
6134;BME280;3098;42.678;23.364;2022-09-04T07:09:52;95401.88;;;27.65;59.26
6134;BME280;3098;42.678;23.364;2022-09-04T07:12:59;95401.88;;;25.65;63.79
6134;BME280;3098;42.678;23.364;2022-09-04T07:15:41;95290.66;;;26.16;60.40
6134;BME280;3098;42.678;23.364;2022-09-04T07:18:18;95409.56;;;26.78;60.40
6134;BME280;3098;42.678;23.364;2022-09-04T07:20:55;95412.38;;;25.52;63.64
6134;BME280;3098;42.678;23.364;2022-09-04T07:23:36;95408.34;;;24.26;67.27
6134;BME280;3098;42.678;23.364;2022-09-04T07:26:15;95408.28;;;26.97;60.57
6134;BME280;3098;42.678;23.364;2022-09-04T07:28:53;95414.34;;;27.66;57.80
6134;BME280;3098;42.678;23.364;2022-09-04T07:31:30;95407.72;;;25.21;62.28
6134;BME280;3098;42.678;23.364;2022-09-04T07:34:06;95401.06;;;24.51;66.53
6134;BME280;3098;42.678;23.364;2022-09-04T07:36:38;95388.16;;;26.07;60.47
6134;BME280;3098;42.678;23.364;2022-09-04T07:39:18;95412.13;;;27.51;54.74
6134;BME280;3098;42.678;23.364;2022-09-04T07:41:52;95412.00;;;28.02;53.37
6134;BME280;3098;42.678;23.364;2022-09-04T07:44:28;95401.41;;;26.81;56.12
6134;BME280;3098;42.678;23.364;2022-09-04T07:47:04;95420.19;;;28.93;50.98
6134;BME280;3098;42.678;23.364;2022-09-04T07:49:46;95434.78;;;28.52;50.46
6134;BME280;3098;42.678;23.364;2022-09-04T07:52:25;95414.06;;;28.85;49.04
6134;BME280;3098;42.678;23.364;2022-09-04T07:55:16;95428.94;;;26.00;58.59
6134;BME280;3098;42.678;23.364;2022-09-04T07:58:11;95401.91;;;25.30;61.20
6134;BME280;3098;42.678;23.364;2022-09-04T08:00:57;95433.16;;;27.91;53.75
6134;BME280;3098;42.678;23.364;2022-09-04T08:03:39;95434.22;;;26.53;56.97
6134;BME280;3098;42.678;23.364;2022-09-04T08:06:17;95422.88;;;27.68;54.58
6134;BME280;3098;42.678;23.364;2022-09-04T08:09:14;95423.41;;;26.36;58.78
6134;BME280;3098;42.678;23.364;2022-09-04T08:12:02;95432.81;;;26.03;58.38
6134;BME280;3098;42.678;23.364;2022-09-04T08:14:45;95426.25;;;23.69;68.99
6134;BME280;3098;42.678;23.364;2022-09-04T08:17:50;95441.16;;;24.03;69.34
6134;BME280;3098;42.678;23.364;2022-09-04T08:20:38;95438.34;;;25.04;65.92
6134;BME280;3098;42.678;23.364;2022-09-04T08:23:22;95439.38;;;26.26;61.04
6134;BME280;3098;42.678;23.364;2022-09-04T08:25:58;95422.44;;;25.41;64.81
6134;BME280;3098;42.678;23.364;2022-09-04T08:28:43;95443.78;;;25.46;64.48
6134;BME280;3098;42.678;23.364;2022-09-04T08:31:19;95446.34;;;27.07;59.39
6134;BME280;3098;42.678;23.364;2022-09-04T08:36:57;95422.09;;;27.68;54.49
6134;BME280;3098;42.678;23.364;2022-09-04T08:39:34;95436.13;;;26.56;55.88
6134;BME280;3098;42.678;23.364;2022-09-04T08:42:31;95428.28;;;27.72;54.52
6134;BME280;3098;42.678;23.364;2022-09-04T08:45:43;95423.69;;;29.90;48.42
6134;BME280;3098;42.678;23.364;2022-09-04T08:48:41;95447.56;;;30.29;45.19
6134;BME280;3098;42.678;23.364;2022-09-04T08:51:49;95428.31;;;31.07;42.90
6134;BME280;3098;42.678;23.364;2022-09-04T08:57:42;95422.44;;;33.82;35.14
6134;BME280;3098;42.678;23.364;2022-09-04T09:00:18;95413.25;;;33.51;34.97
6134;BME280;3098;42.678;23.364;2022-09-04T09:03:33;95401.31;;;29.52;42.13
6134;BME280;3098;42.678;23.364;2022-09-04T09:06:44;95405.22;;;30.89;41.27
6134;BME280;3098;42.678;23.364;2022-09-04T09:09:49;95409.81;;;30.40;42.20
6134;BME280;3098;42.678;23.364;2022-09-04T09:12:49;95358.16;;;28.93;42.05
6134;BME280;3098;42.678;23.364;2022-09-04T09:15:49;95417.81;;;30.11;42.22
6134;BME280;3098;42.678;23.364;2022-09-04T09:18:35;95418.63;;;32.12;37.78
6134;BME280;3098;42.678;23.364;2022-09-04T09:21:08;95421.31;;;29.92;41.10
6134;BME280;3098;42.678;23.364;2022-09-04T09:23:46;95403.63;;;30.55;39.13
6134;BME280;3098;42.678;23.364;2022-09-04T09:26:23;95370.88;;;29.93;40.38
6134;BME280;3098;42.678;23.364;2022-09-04T09:29:22;95390.81;;;29.27;38.78
6134;BME280;3098;42.678;23.364;2022-09-04T09:32:29;95403.78;;;29.20;39.27
6134;BME280;3098;42.678;23.364;2022-09-04T09:41:59;95403.50;;;28.30;43.50
6134;BME280;3098;42.678;23.364;2022-09-04T09:44:52;95382.13;;;28.82;41.29
6134;BME280;3098;42.678;23.364;2022-09-04T09:47:55;95397.00;;;29.54;41.12
6134;BME280;3098;42.678;23.364;2022-09-04T09:50:45;95385.97;;;30.92;37.61
6134;BME280;3098;42.678;23.364;2022-09-04T09:53:33;95376.28;;;31.68;36.05
6134;BME280;3098;42.678;23.364;2022-09-04T09:59:35;95376.66;;;32.53;35.24
6134;BME280;3098;42.678;23.364;2022-09-04T10:05:31;95368.84;;;28.84;41.55
6134;BME280;3098;42.678;23.364;2022-09-04T10:11:24;95382.13;;;27.54;46.17
6134;BME280;3098;42.678;23.364;2022-09-04T10:23:38;95334.28;;;31.26;37.16
6134;BME280;3098;42.678;23.364;2022-09-04T10:26:39;95340.94;;;30.77;38.47
6134;BME280;3098;42.678;23.364;2022-09-04T10:35:16;95351.84;;;31.74;36.13
6134;BME280;3098;42.678;23.364;2022-09-04T10:38:14;95352.59;;;30.65;38.33
6134;BME280;3098;42.678;23.364;2022-09-04T10:40:53;95343.00;;;28.66;41.43
6134;BME280;3098;42.678;23.364;2022-09-04T10:43:52;95356.84;;;29.28;42.59
6134;BME280;3098;42.678;23.364;2022-09-04T10:46:24;95350.16;;;28.26;44.08
6134;BME280;3098;42.678;23.364;2022-09-04T10:49:22;95337.56;;;26.90;46.94
6134;BME280;3098;42.678;23.364;2022-09-04T10:55:15;95324.00;;;26.82;46.97
6134;BME280;3098;42.678;23.364;2022-09-04T11:00:50;95318.75;;;28.71;43.57
6134;BME280;3098;42.678;23.364;2022-09-04T11:03:44;95325.31;;;29.43;42.10
6134;BME280;3098;42.678;23.364;2022-09-04T11:06:51;95321.34;;;30.27;39.77
6134;BME280;3098;42.678;23.364;2022-09-04T11:09:48;95302.25;;;30.59;38.48
6134;BME280;3098;42.678;23.364;2022-09-04T11:15:43;95309.81;;;27.46;45.61
6134;BME280;3098;42.678;23.364;2022-09-04T11:22:01;95308.53;;;28.75;44.42
6134;BME280;3098;42.678;23.364;2022-09-04T11:25:24;95305.69;;;28.56;43.66
6134;BME280;3098;42.678;23.364;2022-09-04T11:28:36;95296.41;;;28.49;45.11
6134;BME280;3098;42.678;23.364;2022-09-04T11:31:24;95297.59;;;29.22;44.12
6134;BME280;3098;42.678;23.364;2022-09-04T11:34:30;95296.81;;;28.98;44.08
6134;BME280;3098;42.678;23.364;2022-09-04T11:40:19;95289.66;;;28.04;45.75
6134;BME280;3098;42.678;23.364;2022-09-04T11:43:12;95288.50;;;28.05;45.71
6134;BME280;3098;42.678;23.364;2022-09-04T11:46:00;95293.78;;;29.16;43.18
6134;BME280;3098;42.678;23.364;2022-09-04T11:52:05;95289.22;;;28.09;46.38
6134;BME280;3098;42.678;23.364;2022-09-04T11:57:54;95217.41;;;28.42;44.56
6134;BME280;3098;42.678;23.364;2022-09-04T12:00:31;95281.63;;;28.47;43.73
6134;BME280;3098;42.678;23.364;2022-09-04T12:03:23;95270.09;;;28.66;44.68
6134;BME280;3098;42.678;23.364;2022-09-04T12:06:09;95243.88;;;28.19;43.76
6134;BME280;3098;42.678;23.364;2022-09-04T12:14:53;95232.56;;;26.44;46.58
6134;BME280;3098;42.678;23.364;2022-09-04T12:17:44;95254.09;;;26.72;46.62
6134;BME280;3098;42.678;23.364;2022-09-04T12:23:56;95248.84;;;26.96;48.64
6134;BME280;3098;42.678;23.364;2022-09-04T12:27:06;95214.53;;;27.05;43.10
6134;BME280;3098;42.678;23.364;2022-09-04T12:30:03;95251.59;;;26.96;43.82
6134;BME280;3098;42.678;23.364;2022-09-04T12:32:59;95244.13;;;27.00;44.43
6134;BME280;3098;42.678;23.364;2022-09-04T12:35:58;95246.56;;;27.28;44.00
6134;BME280;3098;42.678;23.364;2022-09-04T12:41:34;95235.31;;;26.89;45.61
6134;BME280;3098;42.678;23.364;2022-09-04T12:44:10;95234.75;;;26.60;45.45
6134;BME280;3098;42.678;23.364;2022-09-04T12:49:32;95206.56;;;25.85;46.44
6134;BME280;3098;42.678;23.364;2022-09-04T12:52:09;95248.72;;;26.10;46.92
6134;BME280;3098;42.678;23.364;2022-09-04T12:54:50;95231.94;;;26.26;45.73
6134;BME280;3098;42.678;23.364;2022-09-04T12:57:36;95239.84;;;26.58;44.86
6134;BME280;3098;42.678;23.364;2022-09-04T13:00:07;95242.53;;;26.61;44.36
6134;BME280;3098;42.678;23.364;2022-09-04T13:02:55;95237.75;;;26.76;44.16
6134;BME280;3098;42.678;23.364;2022-09-04T13:05:47;95238.00;;;26.48;45.30
6134;BME280;3098;42.678;23.364;2022-09-04T13:08:25;95207.25;;;25.99;44.99
6134;BME280;3098;42.678;23.364;2022-09-04T13:11:02;95220.66;;;26.27;44.52
6134;BME280;3098;42.678;23.364;2022-09-04T13:13:44;95154.16;;;25.81;45.06
6134;BME280;3098;42.678;23.364;2022-09-04T13:16:20;95239.09;;;26.54;44.40
6134;BME280;3098;42.678;23.364;2022-09-04T13:19:00;95225.06;;;26.59;44.71
6134;BME280;3098;42.678;23.364;2022-09-04T13:21:52;95223.97;;;26.49;45.25
6134;BME280;3098;42.678;23.364;2022-09-04T13:24:33;95238.44;;;26.87;44.37
6134;BME280;3098;42.678;23.364;2022-09-04T13:27:22;95236.06;;;26.93;44.03
6134;BME280;3098;42.678;23.364;2022-09-04T13:30:02;95225.91;;;26.52;44.84
6134;BME280;3098;42.678;23.364;2022-09-04T13:32:40;95248.25;;;26.22;50.50
6134;BME280;3098;42.678;23.364;2022-09-04T13:35:18;95217.59;;;25.49;53.62
6134;BME280;3098;42.678;23.364;2022-09-04T13:38:04;95238.88;;;25.65;55.58
6134;BME280;3098;42.678;23.364;2022-09-04T13:40:59;95248.63;;;25.55;56.56
6134;BME280;3098;42.678;23.364;2022-09-04T13:46:29;95237.47;;;25.18;57.69
6134;BME280;3098;42.678;23.364;2022-09-04T13:49:02;95228.59;;;25.03;58.01
6134;BME280;3098;42.678;23.364;2022-09-04T13:51:37;95244.88;;;25.07;59.26
6134;BME280;3098;42.678;23.364;2022-09-04T13:54:11;95235.22;;;24.67;60.86
6134;BME280;3098;42.678;23.364;2022-09-04T13:56:48;95210.03;;;24.84;60.40
6134;BME280;3098;42.678;23.364;2022-09-04T13:59:17;95159.31;;;24.60;60.61
6134;BME280;3098;42.678;23.364;2022-09-04T14:01:49;95247.88;;;25.41;59.97
6134;BME280;3098;42.678;23.364;2022-09-04T14:04:19;95256.06;;;25.23;60.06
6134;BME280;3098;42.678;23.364;2022-09-04T14:06:51;95247.22;;;25.05;61.18
6134;BME280;3098;42.678;23.364;2022-09-04T14:09:24;95232.16;;;24.83;62.29
6134;BME280;3098;42.678;23.364;2022-09-04T14:12:10;95218.56;;;24.90;60.95
6134;BME280;3098;42.678;23.364;2022-09-04T14:15:01;95220.88;;;24.70;60.74
6134;BME280;3098;42.678;23.364;2022-09-04T14:17:42;95241.06;;;24.80;60.56
6134;BME280;3098;42.678;23.364;2022-09-04T14:20:15;95253.81;;;24.90;60.42
6134;BME280;3098;42.678;23.364;2022-09-04T14:22:55;95242.56;;;25.02;59.63
6134;BME280;3098;42.678;23.364;2022-09-04T14:25:28;95237.94;;;24.85;58.79
6134;BME280;3098;42.678;23.364;2022-09-04T14:28:00;95254.22;;;24.81;58.96
6134;BME280;3098;42.678;23.364;2022-09-04T14:30:32;95162.81;;;24.00;59.35
6134;BME280;3098;42.678;23.364;2022-09-04T14:33:10;95236.38;;;24.13;60.71
6134;BME280;3098;42.678;23.364;2022-09-04T14:35:44;95260.03;;;24.23;61.04
6134;BME280;3098;42.678;23.364;2022-09-04T14:38:39;95237.94;;;24.14;62.06
6134;BME280;3098;42.678;23.364;2022-09-04T14:41:19;95238.31;;;24.13;62.29
6134;BME280;3098;42.678;23.364;2022-09-04T14:44:08;95069.03;;;23.04;62.83
6134;BME280;3098;42.678;23.364;2022-09-04T14:46:45;95258.06;;;24.24;63.00
6134;BME280;3098;42.678;23.364;2022-09-04T14:49:24;95251.53;;;24.32;62.29
6134;BME280;3098;42.678;23.364;2022-09-04T14:51:59;95241.03;;;24.27;62.66
6134;BME280;3098;42.678;23.364;2022-09-04T14:54:30;95248.03;;;24.31;61.70
6134;BME280;3098;42.678;23.364;2022-09-04T14:57:09;95209.59;;;23.76;63.03
6134;BME280;3098;42.678;23.364;2022-09-04T14:59:42;95230.91;;;23.78;63.61
6134;BME280;3098;42.678;23.364;2022-09-04T15:02:25;95242.56;;;24.10;62.89
6134;BME280;3098;42.678;23.364;2022-09-04T15:05:00;95198.00;;;23.83;63.50
6134;BME280;3098;42.678;23.364;2022-09-04T15:07:51;95192.22;;;23.91;62.83
6134;BME280;3098;42.678;23.364;2022-09-04T15:10:23;95228.63;;;23.97;64.89
6134;BME280;3098;42.678;23.364;2022-09-04T15:13:05;95255.28;;;23.85;65.54
6134;BME280;3098;42.678;23.364;2022-09-04T15:15:41;95260.25;;;23.58;69.38
6134;BME280;3098;42.678;23.364;2022-09-04T15:18:13;95270.28;;;23.54;69.33
6134;BME280;3098;42.678;23.364;2022-09-04T15:20:56;95261.19;;;23.15;70.89
6134;BME280;3098;42.678;23.364;2022-09-04T15:23:30;95250.19;;;22.86;72.30
6134;BME280;3098;42.678;23.364;2022-09-04T15:26:03;95282.34;;;23.02;73.29
6134;BME280;3098;42.678;23.364;2022-09-04T15:28:39;95275.41;;;23.01;73.98
6134;BME280;3098;42.678;23.364;2022-09-04T15:31:12;95257.06;;;22.77;74.99
6134;BME280;3098;42.678;23.364;2022-09-04T15:33:44;95262.78;;;22.65;76.20
6134;BME280;3098;42.678;23.364;2022-09-04T15:36:17;95256.44;;;22.47;76.59
6134;BME280;3098;42.678;23.364;2022-09-04T15:38:55;95242.00;;;22.25;77.45
6134;BME280;3098;42.678;23.364;2022-09-04T15:41:33;95289.34;;;22.56;78.00
6134;BME280;3098;42.678;23.364;2022-09-04T15:44:11;95157.41;;;21.37;79.55
6134;BME280;3098;42.678;23.364;2022-09-04T15:46:44;95247.00;;;21.86;81.10
6134;BME280;3098;42.678;23.364;2022-09-04T15:49:22;95278.50;;;22.08;81.45
6134;BME280;3098;42.678;23.364;2022-09-04T15:51:56;95306.41;;;22.23;82.01
6134;BME280;3098;42.678;23.364;2022-09-04T15:54:56;95253.66;;;21.59;82.41
6134;BME280;3098;42.678;23.364;2022-09-04T15:57:31;95277.63;;;21.64;83.96
6134;BME280;3098;42.678;23.364;2022-09-04T16:00:03;95281.78;;;21.58;84.67